Time;durP1;ratioP1;P1;durP2;ratioP2;P2;SDS_P1;SDS_P2;PMS_P1;PMS_P2;Temp;Humidity;BMP_temperature;BMP_pressure;BME280_temperature;BME280_humidity;BME280_pressure;Samples;Min_cycle;Max_cycle;Signal;HPM_P1;HPM_P2
2023/12/05 00:01:32;;;;;;;31.42;22.33;;;1.10;99.90;;;;;;4977385;28;20419;-94
2023/12/05 00:04:05;;;;;;;30.50;22.08;;;1.10;99.90;;;;;;4960816;28;20420;-94
2023/12/05 00:06:31;;;;;;;32.10;22.13;;;1.20;99.90;;;;;;4963066;28;20475;-92
2023/12/05 00:08:57;;;;;;;30.00;21.88;;;1.10;99.90;;;;;;4956465;29;20410;-95
2023/12/05 00:11:22;;;;;;;30.48;21.65;;;1.20;99.90;;;;;;4946152;28;20431;-93
2023/12/05 00:14:21;;;;;;;32.67;22.05;;;1.30;99.90;;;;;;4958907;28;20416;-94
2023/12/05 00:16:52;;;;;;;31.40;22.30;;;1.30;99.90;;;;;;4965508;28;21009;-93
2023/12/05 00:22:13;;;;;;;31.90;22.42;;;1.20;99.90;;;;;;4944504;29;20410;-92
2023/12/05 00:24:38;;;;;;;29.73;22.15;;;1.20;99.90;;;;;;4954695;29;20416;-92
2023/12/05 00:27:07;;;;;;;29.98;21.80;;;1.40;99.90;;;;;;4958309;28;20487;-93
2023/12/05 00:29:32;;;;;;;28.50;21.15;;;1.20;99.90;;;;;;4956772;28;20473;-92
2023/12/05 00:32:04;;;;;;;28.77;20.80;;;1.40;99.90;;;;;;4958958;28;20420;-94
2023/12/05 00:34:29;;;;;;;27.67;21.38;;;1.40;99.90;;;;;;4960089;28;20416;-93
2023/12/05 00:36:55;;;;;;;30.73;22.13;;;1.30;99.90;;;;;;4957666;28;20507;-93
2023/12/05 00:39:21;;;;;;;28.73;20.80;;;1.30;99.90;;;;;;4960080;28;20416;-94
2023/12/05 00:41:47;;;;;;;30.02;21.73;;;1.30;99.90;;;;;;4957899;28;20447;-93
2023/12/05 00:44:13;;;;;;;30.40;22.45;;;1.30;99.90;;;;;;4959969;28;20892;-93
2023/12/05 00:46:39;;;;;;;29.48;21.38;;;1.30;99.90;;;;;;4936679;29;20632;-93
2023/12/05 00:49:04;;;;;;;29.67;21.98;;;1.30;99.90;;;;;;4953171;29;20447;-93
2023/12/05 00:51:49;;;;;;;31.67;22.83;;;1.30;99.90;;;;;;4952830;29;20438;-92
2023/12/05 00:54:20;;;;;;;29.60;22.80;;;1.20;99.90;;;;;;4937020;29;20421;-94
2023/12/05 00:56:46;;;;;;;30.00;23.37;;;1.20;99.90;;;;;;4942719;29;20421;-93
2023/12/05 00:59:18;;;;;;;31.73;24.43;;;1.20;99.90;;;;;;4943073;29;20872;-93
2023/12/05 01:01:44;;;;;;;31.45;24.25;;;1.20;99.90;;;;;;4923150;29;20402;-92
2023/12/05 01:04:10;;;;;;;31.23;24.45;;;1.20;99.90;;;;;;4941833;29;20422;-92
2023/12/05 01:06:38;;;;;;;33.57;25.27;;;1.20;99.90;;;;;;4939432;29;20444;-94
2023/12/05 01:09:14;;;;;;;33.17;26.05;;;1.20;99.90;;;;;;4937941;29;20778;-93
2023/12/05 01:11:51;;;;;;;32.28;26.08;;;1.20;99.90;;;;;;4926409;29;20429;-94
2023/12/05 01:14:17;;;;;;;34.27;26.00;;;1.20;99.90;;;;;;4938719;29;20526;-92
2023/12/05 01:16:43;;;;;;;32.27;26.50;;;1.20;99.90;;;;;;4938586;29;20501;-92
2023/12/05 01:19:12;;;;;;;31.17;25.37;;;1.20;99.90;;;;;;4939548;29;20497;-93
2023/12/05 01:21:41;;;;;;;33.97;27.07;;;0.80;99.90;;;;;;4957301;29;20418;-92
2023/12/05 01:24:15;;;;;;;34.47;27.17;;;0.90;99.90;;;;;;4943194;29;20937;-93
2023/12/05 01:26:46;;;;;;;32.42;26.00;;;1.00;99.90;;;;;;4939704;29;20441;-92
2023/12/05 01:29:17;;;;;;;34.17;26.80;;;1.20;99.90;;;;;;4941927;29;20418;-93
2023/12/05 01:31:46;;;;;;;33.38;26.38;;;1.10;99.90;;;;;;4937400;29;20469;-93
2023/12/05 01:34:14;;;;;;;33.30;25.60;;;1.10;99.90;;;;;;4940506;29;20410;-94
2023/12/05 01:36:46;;;;;;;31.27;25.52;;;1.10;99.90;;;;;;4940042;29;20402;-94
2023/12/05 01:39:14;;;;;;;32.47;25.85;;;1.10;99.90;;;;;;4940614;29;20455;-95
2023/12/05 01:41:43;;;;;;;32.92;25.30;;;1.10;99.90;;;;;;4942543;28;20412;-92
2023/12/05 01:44:17;;;;;;;31.67;24.95;;;1.10;99.90;;;;;;4962743;28;20470;-94
2023/12/05 01:46:45;;;;;;;30.63;25.05;;;1.40;99.90;;;;;;4955542;28;20459;-92
2023/12/05 01:49:13;;;;;;;31.85;25.45;;;1.00;99.90;;;;;;4959772;28;20423;-93
2023/12/05 01:58:43;;;;;;;31.83;24.92;;;1.10;99.90;;;;;;4979567;28;20903;-95
2023/12/05 02:01:23;;;;;;;33.13;25.58;;;1.10;99.90;;;;;;4963825;28;20534;-93
2023/12/05 02:03:49;;;;;;;33.67;26.25;;;1.10;99.90;;;;;;4964928;28;20464;-93
2023/12/05 02:06:18;;;;;;;33.40;26.05;;;1.00;99.90;;;;;;4946892;28;20435;-94
2023/12/05 02:09:14;;;;;;;33.38;25.92;;;1.00;99.90;;;;;;4976702;28;20412;-94
2023/12/05 02:11:46;;;;;;;33.35;26.63;;;1.00;99.90;;;;;;4972848;28;20431;-94
2023/12/05 02:14:12;;;;;;;34.25;25.73;;;1.10;99.90;;;;;;4979161;28;20424;-93
2023/12/05 02:16:45;;;;;;;35.03;26.90;;;1.10;99.90;;;;;;4951487;28;20413;-94
2023/12/05 02:19:29;;;;;;;34.33;26.45;;;1.10;99.90;;;;;;4979754;28;20483;-92
2023/12/05 02:22:05;;;;;;;33.35;26.13;;;1.10;99.90;;;;;;4965197;28;20424;-93
2023/12/05 02:25:15;;;;;;;35.72;27.02;;;1.10;99.90;;;;;;4968654;28;20413;-95
2023/12/05 02:27:59;;;;;;;34.67;27.05;;;1.00;99.90;;;;;;4891820;29;20445;-95
2023/12/05 02:30:28;;;;;;;35.75;26.75;;;1.00;99.90;;;;;;4892544;29;20445;-95
2023/12/05 02:33:06;;;;;;;35.40;26.83;;;1.10;99.90;;;;;;4890350;29;20436;-94
2023/12/05 02:36:23;;;;;;;33.67;26.73;;;1.20;99.90;;;;;;4893981;29;20408;-94
2023/12/05 02:39:25;;;;;;;35.22;26.55;;;1.00;99.90;;;;;;4895549;29;20429;-94
2023/12/05 02:42:39;;;;;;;34.42;26.38;;;1.00;99.90;;;;;;4897887;28;20420;-94
2023/12/05 02:45:13;;;;;;;36.22;27.50;;;1.10;99.90;;;;;;4960538;28;20420;-94
2023/12/05 02:47:50;;;;;;;33.95;26.33;;;1.00;99.90;;;;;;4967736;28;20432;-94
2023/12/05 02:50:42;;;;;;;34.30;27.58;;;1.00;99.90;;;;;;4957985;28;20431;-94
2023/12/05 02:53:13;;;;;;;36.17;28.40;;;1.40;99.90;;;;;;4960801;28;20423;-94
2023/12/05 02:55:42;;;;;;;34.40;26.40;;;1.00;99.90;;;;;;4967132;28;20408;-94
2023/12/05 02:58:44;;;;;;;38.08;28.42;;;1.00;99.90;;;;;;4970647;28;20776;-93
2023/12/05 03:01:10;;;;;;;37.47;27.75;;;1.00;99.90;;;;;;4972386;28;20519;-94
2023/12/05 03:03:36;;;;;;;37.25;27.15;;;1.00;99.90;;;;;;4966493;28;20440;-94
2023/12/05 03:06:13;;;;;;;38.50;28.42;;;1.10;99.90;;;;;;4972102;28;20454;-94
2023/12/05 03:08:49;;;;;;;38.72;28.45;;;1.00;99.90;;;;;;4974950;28;20525;-94
2023/12/05 03:11:15;;;;;;;39.78;29.50;;;1.10;99.90;;;;;;4946405;29;20409;-93
2023/12/05 03:13:47;;;;;;;37.53;28.83;;;1.00;99.90;;;;;;4946666;28;20518;-95
2023/12/05 03:16:13;;;;;;;38.80;28.67;;;1.00;99.90;;;;;;4950060;29;20421;-93
2023/12/05 03:18:39;;;;;;;39.13;29.33;;;1.00;99.90;;;;;;4945606;29;20414;-93
2023/12/05 03:21:07;;;;;;;41.97;29.90;;;1.00;99.90;;;;;;4945213;28;20417;-93
2023/12/05 03:23:39;;;;;;;41.05;29.70;;;1.20;99.90;;;;;;4968602;28;20420;-95
2023/12/05 03:26:19;;;;;;;41.53;30.20;;;1.20;99.90;;;;;;4952926;29;20532;-93
2023/12/05 03:28:45;;;;;;;41.33;30.20;;;0.90;99.90;;;;;;4946848;28;20442;-94
2023/12/05 03:31:17;;;;;;;44.63;30.85;;;0.90;99.90;;;;;;4955710;28;20420;-93
2023/12/05 03:33:44;;;;;;;43.08;30.45;;;0.90;99.90;;;;;;4968670;28;20457;-93
2023/12/05 03:36:11;;;;;;;44.05;31.08;;;1.00;99.90;;;;;;4958998;28;20414;-94
2023/12/05 03:38:40;;;;;;;42.45;29.63;;;1.00;99.90;;;;;;4951062;29;20417;-93
2023/12/05 03:41:07;;;;;;;43.28;32.08;;;1.00;99.90;;;;;;4958170;28;20498;-94
2023/12/05 03:43:33;;;;;;;43.08;31.63;;;1.00;99.90;;;;;;4959475;28;20412;-94
2023/12/05 03:45:59;;;;;;;44.78;31.58;;;0.90;99.90;;;;;;4959915;28;20531;-95
2023/12/05 03:48:28;;;;;;;46.72;32.00;;;1.00;99.90;;;;;;4958733;28;20408;-95
2023/12/05 03:50:53;;;;;;;45.67;31.75;;;1.10;99.90;;;;;;4957877;28;20424;-92
2023/12/05 03:53:19;;;;;;;44.60;31.90;;;1.20;99.90;;;;;;4954518;28;20922;-94
2023/12/05 03:55:45;;;;;;;42.50;31.88;;;1.00;99.90;;;;;;4957693;28;20419;-93
2023/12/05 03:58:11;;;;;;;39.77;30.23;;;0.90;99.90;;;;;;4958504;28;20405;-93
2023/12/05 04:00:36;;;;;;;44.73;31.73;;;1.00;99.90;;;;;;4956363;28;20416;-93
2023/12/05 04:03:02;;;;;;;44.42;31.25;;;1.10;99.90;;;;;;4975449;28;20551;-94
2023/12/05 04:05:28;;;;;;;44.42;31.75;;;1.00;99.90;;;;;;4959067;28;20423;-91
2023/12/05 04:07:53;;;;;;;44.47;32.03;;;0.90;99.90;;;;;;4955920;28;20828;-92
2023/12/05 04:10:19;;;;;;;45.20;31.87;;;1.00;99.90;;;;;;4954684;28;20416;-94
2023/12/05 04:12:45;;;;;;;45.40;31.53;;;0.90;99.90;;;;;;4956969;28;20407;-93
2023/12/05 04:15:10;;;;;;;45.65;32.42;;;0.90;99.90;;;;;;4955237;28;20420;-91
2023/12/05 04:17:36;;;;;;;46.65;33.35;;;0.90;99.90;;;;;;4969824;28;20422;-91
2023/12/05 04:20:03;;;;;;;43.27;31.53;;;0.90;99.90;;;;;;4945099;29;20747;-91
2023/12/05 04:22:28;;;;;;;43.33;31.48;;;0.90;99.90;;;;;;4937064;29;21059;-92
2023/12/05 04:24:54;;;;;;;47.73;32.93;;;1.10;99.90;;;;;;4935474;29;20501;-93
2023/12/05 04:27:20;;;;;;;46.70;32.92;;;0.90;99.90;;;;;;4933722;29;20448;-90
2023/12/05 04:29:45;;;;;;;45.47;32.40;;;1.10;99.90;;;;;;4952431;29;20794;-90
2023/12/05 04:32:11;;;;;;;45.97;32.75;;;0.90;99.90;;;;;;4935909;29;20447;-89
2023/12/05 04:34:41;;;;;;;45.25;32.35;;;1.00;99.90;;;;;;4936349;29;20414;-92
2023/12/05 04:37:08;;;;;;;45.65;32.40;;;1.00;99.90;;;;;;4951297;29;20421;-93
2023/12/05 04:39:34;;;;;;;45.83;32.58;;;0.90;99.90;;;;;;4935090;29;20448;-90
2023/12/05 04:42:03;;;;;;;45.72;32.30;;;1.00;99.90;;;;;;4951416;28;20408;-92
2023/12/05 04:44:31;;;;;;;50.00;32.83;;;0.90;99.90;;;;;;4973222;28;20876;-93
2023/12/05 04:47:01;;;;;;;45.70;32.22;;;0.90;99.90;;;;;;4955102;28;20503;-92
2023/12/05 04:49:27;;;;;;;47.03;32.97;;;0.90;99.90;;;;;;4953651;28;20460;-92
2023/12/05 04:51:53;;;;;;;47.50;33.37;;;0.90;99.90;;;;;;4955610;28;20548;-91
2023/12/05 04:54:22;;;;;;;47.15;32.28;;;1.00;99.90;;;;;;4970808;28;20525;-92
2023/12/05 04:56:47;;;;;;;51.97;34.22;;;1.00;99.90;;;;;;4954833;28;20415;-90
2023/12/05 04:59:13;;;;;;;46.78;33.00;;;1.20;99.90;;;;;;4954647;28;20404;-94
2023/12/05 05:01:39;;;;;;;48.95;32.53;;;1.00;99.90;;;;;;4948968;29;20426;-93
2023/12/05 05:04:04;;;;;;;48.60;33.30;;;0.90;99.90;;;;;;4950672;29;20921;-89
2023/12/05 05:06:30;;;;;;;52.07;35.40;;;0.90;99.90;;;;;;4933797;29;20937;-89
2023/12/05 05:08:56;;;;;;;51.93;35.20;;;1.00;99.90;;;;;;4933985;29;20509;-89
2023/12/05 05:11:23;;;;;;;50.93;34.30;;;1.00;99.90;;;;;;4960850;28;20420;-93
2023/12/05 05:13:48;;;;;;;49.10;33.42;;;0.90;99.90;;;;;;4945998;28;20428;-92
2023/12/05 05:16:14;;;;;;;48.20;33.60;;;0.90;99.90;;;;;;4965519;28;20408;-90
2023/12/05 05:18:40;;;;;;;50.23;33.83;;;0.90;99.90;;;;;;4943800;28;20424;-91
2023/12/05 05:21:06;;;;;;;47.78;33.67;;;0.90;99.90;;;;;;4940813;28;20429;-93
2023/12/05 05:23:34;;;;;;;49.97;33.95;;;0.90;99.90;;;;;;4945455;28;20466;-91
2023/12/05 05:26:00;;;;;;;50.35;34.10;;;0.90;99.90;;;;;;4942095;28;20464;-91
2023/12/05 05:28:26;;;;;;;53.55;35.05;;;0.90;99.90;;;;;;4948573;28;20831;-92
2023/12/05 05:30:54;;;;;;;49.60;33.78;;;0.80;99.90;;;;;;4918102;29;20421;-90
2023/12/05 05:33:23;;;;;;;50.42;33.70;;;0.80;99.90;;;;;;4949440;28;20773;-91
2023/12/05 05:35:50;;;;;;;47.90;32.97;;;0.90;99.90;;;;;;4953505;28;20424;-88
2023/12/05 05:38:16;;;;;;;47.08;32.85;;;0.90;99.90;;;;;;4944433;29;20827;-92
2023/12/05 05:40:43;;;;;;;46.67;33.03;;;1.10;99.90;;;;;;4933222;29;20405;-92
2023/12/05 05:43:09;;;;;;;50.53;34.25;;;1.20;99.90;;;;;;4933186;29;20406;-91
2023/12/05 05:45:35;;;;;;;44.88;32.33;;;0.90;99.90;;;;;;4932594;29;20681;-89
2023/12/05 05:48:01;;;;;;;47.22;32.85;;;0.90;99.90;;;;;;4945619;28;20495;-93
2023/12/05 05:50:26;;;;;;;45.87;32.47;;;0.90;99.90;;;;;;4951942;28;20415;-90
2023/12/05 05:52:52;;;;;;;43.13;31.37;;;0.90;99.90;;;;;;4952743;28;20499;-91
2023/12/05 05:55:24;;;;;;;45.30;31.73;;;1.20;99.90;;;;;;4951705;28;20412;-89
2023/12/05 05:57:50;;;;;;;42.97;31.23;;;1.20;99.90;;;;;;4952730;28;20568;-90
2023/12/05 06:00:17;;;;;;;41.83;30.77;;;0.90;99.90;;;;;;4952191;28;20420;-90
2023/12/05 06:02:44;;;;;;;42.17;29.97;;;0.90;99.90;;;;;;4957936;28;20521;-91
2023/12/05 06:05:09;;;;;;;43.17;31.13;;;1.00;99.90;;;;;;4932472;29;20422;-91
2023/12/05 06:07:36;;;;;;;43.77;31.40;;;1.20;99.90;;;;;;4948105;29;20456;-89
2023/12/05 06:10:03;;;;;;;41.95;30.77;;;1.00;99.90;;;;;;4949107;29;20428;-92
2023/12/05 06:12:29;;;;;;;45.78;32.03;;;0.90;99.90;;;;;;4932687;29;20508;-92
2023/12/05 06:14:55;;;;;;;42.35;30.98;;;0.90;99.90;;;;;;4933441;29;20570;-93
2023/12/05 06:17:21;;;;;;;43.27;31.17;;;0.90;99.90;;;;;;4933142;29;20453;-90
2023/12/05 06:19:46;;;;;;;42.63;31.07;;;0.90;99.90;;;;;;4933392;29;20500;-89
2023/12/05 06:22:12;;;;;;;45.03;32.00;;;1.30;99.90;;;;;;4932970;29;20431;-93
2023/12/05 06:24:38;;;;;;;45.53;32.33;;;0.90;99.90;;;;;;4931959;29;20410;-90
2023/12/05 06:27:04;;;;;;;44.22;30.70;;;1.00;99.90;;;;;;4932229;29;20446;-90
2023/12/05 06:29:30;;;;;;;43.30;31.52;;;1.00;99.90;;;;;;4948207;29;20802;-90
2023/12/05 06:31:55;;;;;;;43.93;31.63;;;1.00;99.90;;;;;;4932515;29;20477;-90
2023/12/05 06:34:22;;;;;;;44.78;32.58;;;1.00;99.90;;;;;;4932515;29;20426;-89
2023/12/05 06:36:47;;;;;;;43.20;32.30;;;1.20;99.90;;;;;;4933104;29;20773;-89
2023/12/05 06:39:13;;;;;;;44.33;31.97;;;1.00;99.90;;;;;;4932788;29;20421;-88
2023/12/05 06:41:39;;;;;;;44.33;30.77;;;1.00;99.90;;;;;;4932320;29;20761;-91
2023/12/05 06:44:04;;;;;;;44.60;31.65;;;0.90;99.90;;;;;;4932690;29;20405;-91
2023/12/05 06:46:30;;;;;;;47.60;32.53;;;1.00;99.90;;;;;;4931750;29;20973;-91
2023/12/05 06:48:57;;;;;;;44.90;31.80;;;1.00;99.90;;;;;;4936517;28;20449;-92
2023/12/05 06:51:23;;;;;;;47.00;32.50;;;1.00;99.90;;;;;;4951005;28;20420;-90
2023/12/05 06:53:49;;;;;;;42.95;31.08;;;1.10;99.90;;;;;;4951698;28;20428;-90
2023/12/05 06:56:16;;;;;;;46.40;31.63;;;1.00;99.90;;;;;;4967762;28;20412;-92
2023/12/05 06:58:42;;;;;;;47.38;32.15;;;1.00;99.90;;;;;;4951728;28;20768;-90
2023/12/05 07:01:08;;;;;;;46.50;31.80;;;1.20;99.90;;;;;;4949344;28;20416;-90
2023/12/05 07:03:34;;;;;;;44.85;31.75;;;1.00;99.90;;;;;;4951041;28;20974;-89
2023/12/05 07:06:00;;;;;;;43.40;30.17;;;1.00;99.90;;;;;;4966835;28;20416;-91
2023/12/05 07:08:26;;;;;;;43.13;30.02;;;1.00;99.90;;;;;;4951226;28;20416;-89
2023/12/05 07:10:52;;;;;;;45.38;30.40;;;1.40;99.90;;;;;;4951232;28;20415;-88
2023/12/05 07:13:18;;;;;;;48.13;31.50;;;1.00;99.90;;;;;;4951264;28;20875;-90
2023/12/05 07:15:44;;;;;;;45.23;31.47;;;1.00;99.90;;;;;;4951876;28;20420;-90
2023/12/05 07:18:09;;;;;;;43.20;30.30;;;1.10;99.90;;;;;;4951232;28;20491;-90
2023/12/05 07:20:35;;;;;;;45.03;31.53;;;1.00;99.90;;;;;;4950750;28;20491;-93
2023/12/05 07:23:01;;;;;;;43.25;29.90;;;1.00;99.90;;;;;;4969717;28;20419;-91
2023/12/05 07:25:27;;;;;;;42.53;29.85;;;1.00;99.90;;;;;;4954040;28;20944;-94
2023/12/05 07:27:53;;;;;;;42.67;30.15;;;1.00;99.90;;;;;;4955065;28;20424;-90
2023/12/05 07:30:18;;;;;;;44.55;30.95;;;1.00;99.90;;;;;;4954269;28;20404;-89
2023/12/05 07:32:44;;;;;;;46.07;31.30;;;0.90;99.90;;;;;;4954901;28;20900;-91
2023/12/05 07:35:10;;;;;;;44.80;30.90;;;0.80;99.90;;;;;;4941262;29;20413;-93
2023/12/05 07:37:35;;;;;;;42.72;29.73;;;1.00;99.90;;;;;;4935428;29;20410;-89
2023/12/05 07:40:02;;;;;;;43.15;29.90;;;0.90;99.90;;;;;;4935635;29;20457;-90
2023/12/05 07:42:27;;;;;;;43.03;30.30;;;1.00;99.90;;;;;;4934948;29;20410;-92
2023/12/05 07:44:54;;;;;;;40.13;28.60;;;0.90;99.90;;;;;;4936028;29;20426;-90
2023/12/05 07:47:20;;;;;;;42.47;30.25;;;0.90;99.90;;;;;;4934739;29;20440;-90
2023/12/05 07:49:46;;;;;;;44.28;29.42;;;1.20;99.90;;;;;;4935221;29;20417;-89
2023/12/05 07:52:11;;;;;;;40.83;29.48;;;1.00;99.90;;;;;;4935098;29;20417;-90
2023/12/05 07:54:37;;;;;;;42.47;29.58;;;1.20;99.90;;;;;;4935760;29;20905;-91
2023/12/05 07:57:03;;;;;;;43.65;30.00;;;1.00;99.90;;;;;;4950561;29;20929;-88
2023/12/05 07:59:29;;;;;;;42.70;29.92;;;0.90;99.90;;;;;;4937592;28;20408;-90
2023/12/05 08:01:55;;;;;;;40.05;28.55;;;1.00;99.90;;;;;;4953941;28;21324;-92
2023/12/05 08:04:21;;;;;;;39.08;28.83;;;1.20;99.90;;;;;;4953391;28;20400;-91
2023/12/05 08:06:48;;;;;;;41.70;27.88;;;1.00;99.90;;;;;;4953832;28;20432;-91
2023/12/05 08:09:13;;;;;;;39.70;28.67;;;1.00;99.90;;;;;;4953858;28;20409;-89
2023/12/05 08:11:39;;;;;;;42.50;29.45;;;1.10;99.90;;;;;;4950188;29;20429;-89
2023/12/05 08:14:05;;;;;;;38.78;27.55;;;1.20;99.90;;;;;;4950707;29;20425;-89
2023/12/05 08:16:31;;;;;;;38.60;27.75;;;1.10;99.90;;;;;;4934510;29;20409;-91
2023/12/05 08:18:56;;;;;;;39.23;27.83;;;1.10;99.90;;;;;;4947955;28;20405;-91
2023/12/05 08:21:22;;;;;;;38.07;27.73;;;1.20;99.90;;;;;;4944286;29;20410;-88
2023/12/05 08:23:48;;;;;;;38.90;27.98;;;1.10;99.90;;;;;;4934559;29;20473;-90
2023/12/05 08:26:14;;;;;;;37.97;27.58;;;1.30;99.90;;;;;;4933722;29;20441;-91
2023/12/05 08:28:40;;;;;;;37.67;26.83;;;1.30;99.90;;;;;;4953721;28;20412;-91
2023/12/05 08:31:06;;;;;;;37.63;28.07;;;1.40;99.90;;;;;;4953514;28;20416;-90
2023/12/05 08:33:32;;;;;;;37.47;26.95;;;1.00;99.90;;;;;;4952712;28;20899;-91
2023/12/05 08:35:58;;;;;;;39.63;27.90;;;1.20;99.90;;;;;;4952873;28;20412;-90
2023/12/05 08:38:23;;;;;;;37.13;27.38;;;1.20;99.90;;;;;;4953495;28;20496;-90
2023/12/05 08:40:49;;;;;;;39.22;27.67;;;1.20;99.90;;;;;;4953216;28;20916;-89
2023/12/05 08:43:15;;;;;;;38.27;27.73;;;1.30;99.90;;;;;;4937827;29;20425;-90
2023/12/05 08:45:41;;;;;;;38.83;27.80;;;1.20;99.90;;;;;;4934316;29;20422;-91
2023/12/05 08:48:07;;;;;;;36.33;27.48;;;1.50;99.90;;;;;;4933869;29;20869;-90
2023/12/05 08:50:33;;;;;;;37.53;27.40;;;1.30;99.90;;;;;;4934427;29;20417;-91
2023/12/05 08:52:58;;;;;;;38.58;28.13;;;1.30;99.90;;;;;;4933965;29;20428;-92
2023/12/05 08:55:24;;;;;;;36.27;27.23;;;1.30;99.90;;;;;;4934307;29;20426;-88
2023/12/05 08:57:50;;;;;;;36.10;26.97;;;1.30;99.90;;;;;;4949556;29;20424;-88
2023/12/05 09:00:16;;;;;;;36.67;27.17;;;1.40;99.90;;;;;;4933745;29;20456;-94
2023/12/05 09:02:41;;;;;;;37.92;28.08;;;1.40;99.90;;;;;;4949970;29;20905;-89
2023/12/05 09:05:07;;;;;;;36.97;27.77;;;1.40;99.90;;;;;;4949373;29;20932;-93
2023/12/05 09:07:33;;;;;;;38.17;28.05;;;1.40;99.90;;;;;;4949549;29;20442;-94
2023/12/05 09:09:59;;;;;;;34.13;26.75;;;1.40;99.90;;;;;;4932820;29;20914;-90
2023/12/05 09:12:25;;;;;;;39.33;28.40;;;1.60;99.90;;;;;;4933739;29;20410;-89
2023/12/05 09:14:50;;;;;;;39.25;27.77;;;1.60;99.90;;;;;;4933591;29;20777;-90
2023/12/05 09:17:18;;;;;;;32.95;26.23;;;1.50;99.90;;;;;;4933403;29;20417;-92
2023/12/05 09:19:43;;;;;;;34.60;26.93;;;1.50;99.90;;;;;;4933490;29;20553;-88
2023/12/05 09:22:09;;;;;;;37.23;27.97;;;1.60;99.90;;;;;;4945703;28;20408;-90
2023/12/05 09:24:35;;;;;;;36.55;27.10;;;1.60;99.90;;;;;;4944688;29;20414;-91
2023/12/05 09:27:00;;;;;;;37.60;27.25;;;1.60;99.90;;;;;;4932613;29;20484;-90
2023/12/05 09:29:27;;;;;;;35.40;26.77;;;1.70;99.90;;;;;;4933570;29;20813;-89
2023/12/05 09:31:53;;;;;;;36.97;27.05;;;1.70;99.90;;;;;;4933419;29;20476;-93
2023/12/05 09:34:19;;;;;;;34.40;26.60;;;1.70;99.90;;;;;;4933142;29;20414;-92
2023/12/05 09:36:44;;;;;;;34.57;27.03;;;1.70;99.90;;;;;;4933284;29;20425;-90
2023/12/05 09:39:10;;;;;;;32.05;25.80;;;1.80;99.90;;;;;;4949043;29;20497;-93
2023/12/05 09:41:45;;;;;;;37.33;28.63;;;1.70;99.90;;;;;;4933392;29;20406;-92
2023/12/05 09:44:11;;;;;;;34.72;26.08;;;1.80;99.90;;;;;;4932551;29;20417;-92
2023/12/05 09:46:39;;;;;;;36.05;27.60;;;2.10;99.90;;;;;;4932770;29;20442;-90
2023/12/05 09:49:06;;;;;;;33.50;26.92;;;2.00;99.90;;;;;;4932402;29;20416;-91
2023/12/05 09:51:34;;;;;;;33.90;25.98;;;1.90;99.90;;;;;;4938467;28;20467;-90
2023/12/05 09:54:00;;;;;;;31.52;24.92;;;1.90;99.90;;;;;;4951704;28;20478;-90
2023/12/05 09:56:26;;;;;;;34.58;26.67;;;1.80;99.90;;;;;;4951260;28;20404;-92
2023/12/05 09:58:53;;;;;;;34.28;26.17;;;2.10;99.90;;;;;;4951055;28;20422;-91
2023/12/05 10:01:21;;;;;;;30.67;25.08;;;1.90;99.90;;;;;;4931970;29;20459;-90
2023/12/05 10:03:54;;;;;;;30.58;24.65;;;1.90;99.90;;;;;;4932692;29;20417;-90
2023/12/05 10:06:22;;;;;;;31.23;24.55;;;1.80;99.90;;;;;;4936563;28;20435;-90
2023/12/05 10:08:51;;;;;;;31.23;24.13;;;2.00;99.90;;;;;;4952317;28;20771;-94
2023/12/05 10:11:20;;;;;;;30.88;24.85;;;2.00;99.90;;;;;;4948743;29;20924;-91
2023/12/05 10:13:46;;;;;;;31.17;24.17;;;2.00;99.90;;;;;;4944453;29;20406;-92
2023/12/05 10:16:13;;;;;;;32.25;25.10;;;2.20;99.90;;;;;;4948617;29;20418;-90
2023/12/05 10:18:40;;;;;;;30.73;24.98;;;2.00;99.90;;;;;;4947643;29;20480;-93
2023/12/05 10:21:05;;;;;;;30.70;24.10;;;2.00;99.90;;;;;;4948633;29;20456;-89
2023/12/05 10:23:32;;;;;;;31.17;24.23;;;2.00;99.90;;;;;;4948006;29;20449;-89
2023/12/05 10:25:58;;;;;;;30.77;24.45;;;2.00;99.90;;;;;;4948336;29;20472;-89
2023/12/05 10:28:24;;;;;;;31.33;24.43;;;2.10;99.90;;;;;;4951714;28;20500;-91
2023/12/05 10:30:49;;;;;;;31.30;24.65;;;2.10;99.90;;;;;;4950939;28;20496;-90
2023/12/05 10:33:17;;;;;;;31.53;24.87;;;1.90;99.90;;;;;;4951545;28;20491;-89
2023/12/05 10:35:44;;;;;;;30.85;24.73;;;2.00;99.90;;;;;;4951216;28;20441;-88
2023/12/05 10:38:12;;;;;;;32.03;24.77;;;2.00;99.90;;;;;;4951523;28;20415;-88
2023/12/05 10:40:59;;;;;;;31.20;24.25;;;2.00;99.90;;;;;;4951312;28;20936;-90
2023/12/05 10:43:26;;;;;;;29.13;24.50;;;1.90;99.90;;;;;;4951968;28;21207;-90
2023/12/05 10:45:54;;;;;;;31.58;24.92;;;2.20;99.90;;;;;;4967859;28;20988;-90
2023/12/05 10:48:23;;;;;;;30.57;23.53;;;2.00;99.90;;;;;;4949067;28;20550;-90
2023/12/05 10:50:51;;;;;;;31.42;25.40;;;2.00;99.90;;;;;;4932931;29;20427;-90
2023/12/05 10:53:17;;;;;;;29.50;24.15;;;2.00;99.90;;;;;;4931366;29;20439;-89
2023/12/05 10:55:43;;;;;;;31.37;25.90;;;2.00;99.90;;;;;;4932764;29;20507;-88
2023/12/05 10:58:10;;;;;;;30.33;24.73;;;2.00;99.90;;;;;;4934003;29;20401;-88
2023/12/05 11:00:37;;;;;;;30.25;24.02;;;2.10;99.90;;;;;;4935913;29;20465;-90
2023/12/05 11:03:03;;;;;;;31.25;25.00;;;2.00;99.90;;;;;;4936186;29;20414;-91
2023/12/05 11:05:31;;;;;;;30.75;24.10;;;2.00;99.90;;;;;;4935587;29;20967;-91
2023/12/05 11:07:58;;;;;;;31.85;25.15;;;2.00;99.90;;;;;;4936425;29;20995;-92
2023/12/05 11:10:25;;;;;;;30.45;25.08;;;2.00;99.90;;;;;;4934737;29;20449;-89
2023/12/05 11:12:54;;;;;;;31.93;25.27;;;1.90;99.90;;;;;;4935846;29;20488;-91
2023/12/05 11:15:36;;;;;;;32.83;26.50;;;1.90;99.90;;;;;;4936380;28;20431;-89
2023/12/05 11:18:20;;;;;;;32.55;25.42;;;2.00;99.90;;;;;;4955129;28;20416;-90
2023/12/05 11:20:58;;;;;;;30.42;24.67;;;2.00;99.90;;;;;;4955215;28;20420;-90
2023/12/05 11:23:42;;;;;;;31.15;25.13;;;2.00;99.90;;;;;;4954783;28;21010;-91
2023/12/05 11:27:01;;;;;;;29.70;24.45;;;2.00;99.90;;;;;;4955046;28;20428;-92
2023/12/05 11:29:45;;;;;;;34.25;26.73;;;2.00;99.90;;;;;;4896811;29;20421;-90
2023/12/05 11:32:40;;;;;;;32.03;24.77;;;2.00;99.90;;;;;;4895956;29;20425;-89
2023/12/05 11:35:22;;;;;;;35.15;27.67;;;2.00;99.90;;;;;;4946306;28;20439;-91
2023/12/05 11:38:08;;;;;;;36.28;28.98;;;2.00;99.90;;;;;;4943069;29;20842;-90
2023/12/05 11:40:36;;;;;;;33.95;27.65;;;2.00;99.90;;;;;;4935116;29;20414;-90
2023/12/05 11:43:10;;;;;;;34.50;27.50;;;2.00;99.90;;;;;;4935529;29;20442;-89
2023/12/05 11:45:37;;;;;;;34.15;26.75;;;2.00;99.90;;;;;;4935301;29;20841;-91
2023/12/05 11:48:04;;;;;;;33.17;25.83;;;2.10;99.90;;;;;;4935008;29;20449;-90
2023/12/05 11:50:44;;;;;;;33.38;27.60;;;2.00;99.90;;;;;;4967629;28;20950;-91
2023/12/05 11:53:12;;;;;;;32.55;26.25;;;2.10;99.90;;;;;;4970127;28;20452;-89
2023/12/05 11:55:48;;;;;;;32.92;25.98;;;2.20;99.90;;;;;;4970308;28;20423;-92
2023/12/05 11:58:30;;;;;;;35.15;27.40;;;2.20;99.90;;;;;;4953635;28;20420;-91
2023/12/05 12:01:05;;;;;;;33.72;27.08;;;2.20;99.90;;;;;;4954485;28;20919;-89
2023/12/05 12:03:53;;;;;;;36.30;27.42;;;2.20;99.90;;;;;;4954019;28;20692;-89
2023/12/05 12:06:21;;;;;;;35.38;28.08;;;2.20;99.90;;;;;;4953541;28;20503;-90
2023/12/05 12:08:48;;;;;;;34.20;26.75;;;2.30;99.90;;;;;;4954129;28;20418;-89
2023/12/05 12:11:15;;;;;;;32.78;26.85;;;2.60;99.90;;;;;;4969361;28;20412;-93
2023/12/05 12:13:40;;;;;;;33.00;26.67;;;2.50;99.90;;;;;;4953966;28;20455;-89
2023/12/05 12:16:07;;;;;;;33.90;26.80;;;2.40;99.90;;;;;;4969805;28;20440;-89
2023/12/05 12:18:32;;;;;;;34.47;27.52;;;2.40;99.90;;;;;;4953719;28;20522;-91
2023/12/05 12:20:59;;;;;;;34.00;26.30;;;2.40;99.90;;;;;;4934372;29;20464;-87
2023/12/05 12:23:25;;;;;;;34.55;27.67;;;2.40;99.90;;;;;;4949871;29;20501;-91
2023/12/05 12:25:54;;;;;;;34.55;27.52;;;2.40;99.90;;;;;;4950453;29;20418;-90
2023/12/05 12:28:28;;;;;;;35.65;27.40;;;2.50;99.90;;;;;;4956028;28;20420;-90
2023/12/05 12:30:58;;;;;;;35.30;28.08;;;2.40;99.90;;;;;;4952311;28;20488;-89
2023/12/05 12:33:36;;;;;;;35.42;27.58;;;2.40;99.90;;;;;;4933937;28;20458;-91
2023/12/05 12:36:02;;;;;;;34.85;27.90;;;2.60;99.90;;;;;;4952971;28;20408;-89
2023/12/05 12:38:27;;;;;;;36.33;27.60;;;2.40;99.90;;;;;;4935745;29;20505;-90
2023/12/05 12:40:53;;;;;;;35.75;28.95;;;2.40;99.90;;;;;;4933531;29;20525;-89
2023/12/05 12:43:19;;;;;;;37.35;28.63;;;2.60;99.90;;;;;;4934539;29;20762;-89
2023/12/05 12:45:45;;;;;;;35.40;27.40;;;2.50;99.90;;;;;;4933738;29;20418;-92
2023/12/05 12:48:11;;;;;;;36.55;28.02;;;2.50;99.90;;;;;;4934215;29;20437;-93
2023/12/05 12:50:36;;;;;;;35.75;28.63;;;2.40;99.90;;;;;;4934024;29;20928;-89
2023/12/05 12:53:04;;;;;;;34.03;28.17;;;2.40;99.90;;;;;;4936624;28;20428;-89
2023/12/05 12:55:31;;;;;;;35.28;28.35;;;2.60;99.90;;;;;;4953104;28;20419;-90